Humbird, WI (54746)

7:37 AM CST on November 28, 2014 (GMT -0600)
MesoWest HUMBIR WI US UPR | Change Station
CLOSE
Current Station
Personal Weather Station
Location: Humbird, WI
Elevation: 1092 ft
Nearby Weather Stations

Elev 1092 ft 44.55 °N, 90.92 °W | Updated 2 days ago

Snow
Snow
16 °F
Feels Like 5 °F
N
9
Wind Variable Wind from SE
Gusts 8 mph

Today
High -- | Low -- °F
--% Chance of Precip.
Yesterday
High -- | Low -- °F
Precip. -- in
7:16 AM 4:26 PM
Waxing Crescent, 40% visible
Pressure 30.10 in
Visibility 10.0 miles
Clouds Overcast 7000 ft
Windchill 5 °F
Dew Point 10 °F
Humidity 78%
Rainfall -999.00 in
Snow Depth Not available.
UV 0 out of 12
Pollen .10 out of 12
Air Quality Not available.
Flu Activity Not available.
METAR KBCK 281315Z AUTO 11005KT 10SM OVC070 M10/M13 A3010 RMK AO2 T11021129

More Conditions Fewer Conditions

Pressure 30.10 in
Visibility 10.0 miles
Clouds Overcast 7000 ft
Windchill 5 °F
Dew Point 10 °F
Humidity 78%
Rainfall -999.00 in
Snow Depth Not available.
UV 0 out of 12
Pollen .10 out of 12
Air Quality Not available.
Flu Activity Not available.
METAR KBCK 281315Z AUTO 11005KT 10SM OVC070 M10/M13 A3010 RMK AO2 T11021129

More Conditions Fewer Conditions

Nowcast | as of 7:15 am CST on November 28, 2014

Some light snow will continue to fall across the area through the morning. Most snow amounts from 7 am to 9 am will be a trace to a couple tenths of an inch. Look for a break in the snow after 9 am...with more snow expected later the morning and early this afternoon. This snow can be expected to produce some slick spots on area roads. Use caution when traveling early this morning.

×

10-Day Weather Forecast

Almanac

Astronomy

Nov. 28, 2014 Rise Set
Actual Time
Civil Twilight
Nautical Twilight
Astronomical Twilight
Moon
Length of Visible Light
Length of Day
Tomorrow will be .
, % of the Moon is Illuminated

Today's Extremes

State Highs State Lows

Community

WunderPhotos

Upload Photos

1,774,210 photos uploaded!

WunderBlogs® & News

Nearby

Air Quality

  Air Quality AQ Index Pollutant
Not available.

Snow Depth

Station Depth Elevation

Earthquake Activity

City Distance Mag. Time & Date
Minimum magnitude displayed is 2.5.

Coastal Water Temperatures

Place Temperature

Nearby Weather Stations